Rejestracja

Wszystkie dane podawane są w czasie UTC za wyjątkiem miejsc gdzie jest jednoznacznie podane, że jest inaczej. Dane podawane w serwisie mają charakter informacyjny!!!
Informacje w sprawie dostępu do serwisu pod numerem tel. +48 261-828-138

Aktualna Pogoda
 
Pogoda w Polsce
6°C Szczecin 6°C Suwałki 7°C Warszawa 7°C Poznan
7°C Opole 9°C Kraków 4°C Rzeszów
Więcej miast w Polsce

Pogoda w Europie
7°C Berlin 9°C Paryz 8°C Bruksela 1°C Oslo
8°C Praga 3°C Zagrzeb
Więcej miast w Europie

Metary wojskowe test
METAR EPBC 111100Z 13003KT 1300 -RA BKN004 07/06 Q1004=
METAR EPCE 111130Z 28007KT 9999 -RA OVC008 05/05 Q1003 RMK 051 097 8/8=
METAR EPDA 111130Z 28010KT 240V310 9999 -RA SCT009 OVC027 06/05 Q1004 RMK 063 094 8/4=
METAR EPDE 111130Z 17004KT 4000 RA BKN006 OVC017 07/06 Q1004 RMK 066 094 8/6=
METAR EPIR 111130Z 32002KT 2000 -RA BR BKN005 OVC015 07/07 Q1002 RMK 067 099 8/5=
METAR EPKS 111130Z 27010KT 3500 -RA BR BKN005 OVC011 07/07 Q1002 RMK 072 095 8/5=
METAR EPLK 111130Z 23015KT 3000 -RA BR BKN006 OVC012 06/06 Q1003 RMK 062 097 8/5=
METAR EPLY 111100Z 23010KT 4000 -RA BR BKN008 OVC013 06/05 Q1003 RMK 058 094 8/5=
METAR EPMB 111130Z 28006KT 6000 -RA OVC020 06/05 Q1003 RMK 060 091 8/8=
METAR EPMI 111100Z 33004KT 5000 -RA BR SCT006 OVC015 05/04 Q1004 RMK 054 091 8/3=
METAR EPMM 111130Z 17002KT 1500 R27/1500N RA BR BKN003 OVC010 06/06 Q1003 RMK 061 098 8/7=
METAR EPOK 111130Z 28010KT 9999 -RA OVC038 06/05 Q1002 RMK 060 096 8/8=
METAR EPPR 111100Z 24002KT 6000 -RA OVC022 06/05 Q1003 RMK 061 092 8/8=
METAR EPPW 111130Z 24014KT 4000 -RA BR SCT007 BKN009 OVC012 07/06 Q1001 RMK 070 094 8/3=
METAR EPSN 111130Z 30006KT 8000 -RA SCT007 OVC015 05/04 Q1005 RMK 047 095 8/3=
METAR EPTM 111100Z AUTO 17002KT ///005 07/07 Q1003 RMK 069 097=


 
Informacje ogólne
Pogoda
Warszawa
Temperatura: 6.8°C
Wiatr: 2.0 m/s
Ciśnienie: 1004.4 hPa
Zjawiska: Deszcz
Temp. max: 8.2 °C
Temp. min: 6.8 °C


Dane astronomiczne
Warszawa:
Dzien: 07:48 h
Noc: 16:12 h


Using HW VSP powered by HW group.

Prawa autorskie©2007 SSH SZ RP. Wszelkie prawa zastrzeżone.